createdAt,value
2022-08-04T00:00:59.057Z,21.85
2022-08-04T00:03:44.759Z,21.80
2022-08-04T00:06:48.348Z,21.77
2022-08-04T00:09:51.191Z,21.70
2022-08-04T00:12:39.578Z,21.57
2022-08-04T00:15:22.613Z,21.58
2022-08-04T00:18:06.182Z,21.55
2022-08-04T00:20:46.023Z,21.48
2022-08-04T00:23:27.049Z,21.46
2022-08-04T00:26:29.725Z,21.42
2022-08-04T00:29:12.708Z,21.30
2022-08-04T00:31:54.853Z,21.31
2022-08-04T00:35:01.405Z,21.30
2022-08-04T00:37:42.427Z,21.29
2022-08-04T00:40:49.000Z,21.27
2022-08-04T00:43:33.037Z,21.25
2022-08-04T00:46:36.230Z,21.21
2022-08-04T00:49:28.010Z,21.19
2022-08-04T00:52:31.326Z,21.16
2022-08-04T00:55:46.255Z,21.11
2022-08-04T00:58:43.562Z,21.09
2022-08-04T01:01:40.841Z,21.10
2022-08-04T01:04:33.293Z,21.05
2022-08-04T01:07:31.247Z,21.02
2022-08-04T01:10:23.554Z,21.00
2022-08-04T01:13:15.342Z,20.97
2022-08-04T01:16:11.204Z,20.94
2022-08-04T01:18:57.160Z,20.93
2022-08-04T01:21:56.204Z,20.90
2022-08-04T01:24:53.001Z,20.87
2022-08-04T01:28:07.240Z,20.82
2022-08-04T01:30:47.188Z,20.77
2022-08-04T01:33:29.175Z,20.77
2022-08-04T01:36:10.885Z,20.75
2022-08-04T01:38:55.221Z,20.76
2022-08-04T01:41:35.798Z,20.75
2022-08-04T01:44:17.928Z,20.75
2022-08-04T01:46:58.892Z,20.71
2022-08-04T01:49:41.088Z,20.68
2022-08-04T01:52:21.971Z,20.66
2022-08-04T01:55:02.727Z,20.64
2022-08-04T01:57:45.284Z,20.64
2022-08-04T02:00:27.394Z,20.59
2022-08-04T02:03:07.019Z,20.58
2022-08-04T02:06:03.587Z,20.56
2022-08-04T02:08:51.855Z,20.53
2022-08-04T02:11:30.981Z,20.50
2022-08-04T02:14:39.017Z,20.47
2022-08-04T02:17:24.122Z,20.45
2022-08-04T02:20:08.186Z,20.43
2022-08-04T02:22:53.045Z,20.43
2022-08-04T02:25:39.138Z,20.39
2022-08-04T02:28:23.994Z,20.38
2022-08-04T02:31:11.032Z,20.38
2022-08-04T02:33:59.897Z,20.37
2022-08-04T02:36:41.507Z,20.39
2022-08-04T02:39:22.889Z,20.40
2022-08-04T02:42:06.460Z,20.33
2022-08-04T02:45:02.414Z,20.40
2022-08-04T02:48:29.252Z,20.41
2022-08-04T02:50:44.679Z,20.47
2022-08-04T02:53:26.231Z,20.50
2022-08-04T02:56:08.798Z,20.45
2022-08-04T02:58:53.439Z,20.47
2022-08-04T03:01:36.343Z,20.45
2022-08-04T03:04:34.206Z,20.48
2022-08-04T03:07:38.596Z,20.45
2022-08-04T03:11:20.188Z,20.36
2022-08-04T03:14:20.735Z,20.36
2022-08-04T03:17:28.481Z,20.33
2022-08-04T03:20:45.533Z,20.33
2022-08-04T03:23:45.148Z,20.30
2022-08-04T03:26:51.412Z,20.31
2022-08-04T03:30:00.085Z,20.30
2022-08-04T03:33:23.812Z,20.32
2022-08-04T03:36:49.790Z,20.32
2022-08-04T03:40:01.138Z,20.32
2022-08-04T03:42:48.003Z,20.35
2022-08-04T03:46:13.894Z,20.34
2022-08-04T03:49:44.255Z,20.41
2022-08-04T03:53:08.376Z,20.37
2022-08-04T03:56:12.077Z,20.29
2022-08-04T03:59:27.369Z,20.26
2022-08-04T04:02:32.031Z,20.26
2022-08-04T04:05:55.990Z,20.17
2022-08-04T04:09:12.839Z,20.25
2022-08-04T04:12:26.731Z,20.22
2022-08-04T04:15:21.644Z,20.22
2022-08-04T04:18:30.749Z,20.15
2022-08-04T04:21:28.364Z,20.16
2022-08-04T04:24:34.575Z,20.16
2022-08-04T04:27:25.469Z,20.04
2022-08-04T04:30:10.208Z,20.10
2022-08-04T04:33:12.783Z,20.13
2022-08-04T04:36:00.522Z,20.12
2022-08-04T04:39:03.088Z,20.19
2022-08-04T04:42:37.184Z,20.25
2022-08-04T04:45:24.267Z,20.27
2022-08-04T04:48:10.877Z,20.24
2022-08-04T04:51:04.000Z,20.32
2022-08-04T04:54:00.787Z,20.37
2022-08-04T04:56:45.187Z,20.31
2022-08-04T04:59:29.985Z,20.32
2022-08-04T05:02:26.220Z,20.41
2022-08-04T05:05:22.969Z,20.51
2022-08-04T05:08:50.014Z,20.59
2022-08-04T05:11:58.986Z,20.65
2022-08-04T05:14:45.818Z,20.69
2022-08-04T05:17:50.954Z,20.75
2022-08-04T05:20:43.027Z,20.83
2022-08-04T05:23:24.626Z,20.88
2022-08-04T05:26:08.792Z,20.96
2022-08-04T05:28:53.330Z,21.03
2022-08-04T05:31:35.835Z,21.11
2022-08-04T05:34:21.869Z,21.20
2022-08-04T05:37:05.168Z,21.34
2022-08-04T05:39:49.405Z,21.45
2022-08-04T05:42:34.449Z,21.61
2022-08-04T05:45:16.717Z,21.68
2022-08-04T05:47:59.363Z,21.82
2022-08-04T05:50:39.950Z,21.97
2022-08-04T05:53:22.451Z,22.12
2022-08-04T05:56:03.670Z,22.26
2022-08-04T05:58:43.546Z,22.40
2022-08-04T06:01:23.205Z,22.57
2022-08-04T06:04:06.873Z,22.79
2022-08-04T06:06:53.418Z,22.90
2022-08-04T06:09:35.833Z,23.02
2022-08-04T06:12:20.935Z,23.19
2022-08-04T06:15:18.188Z,23.33
2022-08-04T06:18:32.834Z,23.50
2022-08-04T06:21:16.418Z,23.68
2022-08-04T06:24:04.381Z,23.76
2022-08-04T06:26:48.301Z,23.96
2022-08-04T06:29:34.509Z,24.07
2022-08-04T06:32:33.796Z,24.24
2022-08-04T06:35:18.655Z,24.42
2022-08-04T06:38:01.102Z,24.53
2022-08-04T06:40:42.558Z,24.73
2022-08-04T06:43:23.338Z,24.92
2022-08-04T06:46:06.009Z,25.09
2022-08-04T06:48:49.058Z,25.17
2022-08-04T06:51:38.886Z,25.23
2022-08-04T06:54:20.543Z,25.39
2022-08-04T06:57:03.601Z,25.61
2022-08-04T06:59:44.520Z,25.72
2022-08-04T07:02:26.995Z,25.95
2022-08-04T07:05:08.600Z,26.14
2022-08-04T07:07:57.054Z,26.28
2022-08-04T07:10:38.749Z,26.66
2022-08-04T07:13:19.205Z,26.87
2022-08-04T07:16:02.169Z,27.14
2022-08-04T07:18:44.934Z,27.45
2022-08-04T07:21:27.022Z,27.83
2022-08-04T07:24:10.012Z,28.14
2022-08-04T07:26:51.924Z,28.60
2022-08-04T07:29:31.791Z,28.82
2022-08-04T07:32:10.939Z,28.87
2022-08-04T07:34:51.496Z,29.21
2022-08-04T07:37:38.866Z,28.91
2022-08-04T07:40:21.232Z,28.93
2022-08-04T07:43:01.831Z,29.03
2022-08-04T07:45:43.959Z,29.06
2022-08-04T07:48:24.850Z,29.21
2022-08-04T07:51:15.452Z,29.18
2022-08-04T07:53:56.371Z,29.51
2022-08-04T07:56:49.913Z,29.72
2022-08-04T07:59:30.415Z,30.11
2022-08-04T08:02:10.629Z,30.17
2022-08-04T08:04:50.170Z,30.44
2022-08-04T08:07:29.749Z,30.74
2022-08-04T08:10:14.844Z,30.65
2022-08-04T08:12:54.739Z,31.06
2022-08-04T08:15:36.456Z,31.41
2022-08-04T08:18:32.775Z,31.64
2022-08-04T08:21:13.362Z,32.16
2022-08-04T08:23:51.933Z,32.41
2022-08-04T08:26:30.919Z,32.67
2022-08-04T08:29:11.408Z,33.14
2022-08-04T08:31:56.236Z,33.34
2022-08-04T08:34:39.415Z,32.99
2022-08-04T08:37:22.789Z,32.85
2022-08-04T08:40:14.425Z,33.46
2022-08-04T08:44:04.523Z,33.71
2022-08-04T08:46:49.675Z,34.12
2022-08-04T08:50:00.111Z,33.94
2022-08-04T08:53:02.788Z,34.51
2022-08-04T08:55:51.016Z,34.72
2022-08-04T08:58:56.824Z,35.02
2022-08-04T09:01:51.374Z,34.74
2022-08-04T09:05:00.061Z,34.66
2022-08-04T09:08:12.468Z,34.71
2022-08-04T09:11:09.611Z,34.57
2022-08-04T09:13:54.201Z,34.81
2022-08-04T09:16:39.852Z,35.08
2022-08-04T09:19:38.880Z,35.13
2022-08-04T09:22:21.968Z,35.00
2022-08-04T09:25:04.756Z,35.22
2022-08-04T09:27:48.457Z,35.20
2022-08-04T09:30:33.747Z,35.51
2022-08-04T09:33:22.553Z,35.70
2022-08-04T09:36:27.151Z,36.18
2022-08-04T09:39:13.376Z,36.49
2022-08-04T09:42:03.959Z,37.05
2022-08-04T09:45:00.150Z,37.65
2022-08-04T09:47:50.475Z,37.26
2022-08-04T09:50:35.681Z,36.99
2022-08-04T09:53:39.869Z,36.76
2022-08-04T09:56:25.850Z,37.31
2022-08-04T09:59:12.471Z,37.64
2022-08-04T10:02:00.017Z,37.49
2022-08-04T10:04:41.706Z,37.29
2022-08-04T10:08:15.416Z,37.66
2022-08-04T10:11:01.475Z,37.29
2022-08-04T10:13:49.722Z,37.59
2022-08-04T10:16:45.898Z,37.28
2022-08-04T10:19:28.065Z,37.48
2022-08-04T10:22:29.305Z,37.86
2022-08-04T10:26:02.844Z,37.95
2022-08-04T10:28:24.431Z,38.23
2022-08-04T10:31:20.465Z,38.39
2022-08-04T10:34:04.592Z,38.72
2022-08-04T10:36:55.109Z,39.14
2022-08-04T10:39:44.415Z,39.20
2022-08-04T10:42:26.787Z,38.86
2022-08-04T10:45:20.013Z,38.66
2022-08-04T10:48:03.856Z,38.91
2022-08-04T10:50:56.924Z,39.42
2022-08-04T10:53:39.263Z,38.71
2022-08-04T10:56:24.995Z,38.64
2022-08-04T10:59:16.496Z,38.92
2022-08-04T11:02:04.545Z,38.98
2022-08-04T11:04:48.648Z,38.92
2022-08-04T11:07:31.625Z,38.89
2022-08-04T11:10:13.980Z,39.02
2022-08-04T11:12:56.924Z,39.12
2022-08-04T11:15:41.691Z,39.02
2022-08-04T11:18:25.920Z,38.71
2022-08-04T11:21:21.018Z,38.96
2022-08-04T11:24:19.799Z,38.80
2022-08-04T11:27:06.382Z,39.16
2022-08-04T11:29:52.504Z,38.91
2022-08-04T11:32:38.914Z,38.98
2022-08-04T11:35:26.479Z,39.41
2022-08-04T11:38:12.761Z,39.41
2022-08-04T11:41:03.131Z,39.70
2022-08-04T11:44:01.330Z,39.31
2022-08-04T11:46:58.516Z,39.66
2022-08-04T11:49:57.218Z,39.90
2022-08-04T11:52:39.512Z,40.27
2022-08-04T11:55:22.258Z,40.64
2022-08-04T11:58:02.841Z,40.38
2022-08-04T12:00:48.479Z,40.46
2022-08-04T12:03:38.620Z,40.58
2022-08-04T12:06:23.513Z,40.47
2022-08-04T12:09:10.791Z,40.38
2022-08-04T12:11:58.004Z,40.73
2022-08-04T12:14:45.275Z,40.90
2022-08-04T12:17:30.569Z,40.45
2022-08-04T12:20:38.084Z,40.48
2022-08-04T12:23:25.626Z,40.48
2022-08-04T12:26:07.697Z,40.28
2022-08-04T12:31:52.381Z,40.16
2022-08-04T12:34:36.366Z,40.63
2022-08-04T12:37:21.995Z,40.85
2022-08-04T12:40:28.469Z,40.94
2022-08-04T12:43:12.709Z,41.21
2022-08-04T12:45:55.155Z,40.81
2022-08-04T12:48:37.433Z,40.81
2022-08-04T12:52:06.536Z,41.15
2022-08-04T12:54:28.801Z,41.31
2022-08-04T12:57:10.190Z,41.47
2022-08-04T12:59:56.905Z,40.90
2022-08-04T13:02:44.103Z,40.93
2022-08-04T13:05:23.779Z,41.19
2022-08-04T13:08:06.115Z,41.13
2022-08-04T13:10:48.656Z,41.16
2022-08-04T13:13:30.386Z,41.36
2022-08-04T13:16:13.084Z,41.43
2022-08-04T13:18:56.635Z,41.49
2022-08-04T13:21:50.489Z,41.56
2022-08-04T13:24:57.069Z,41.40
2022-08-04T13:27:46.880Z,41.34
2022-08-04T13:30:29.827Z,41.03
2022-08-04T13:33:11.001Z,40.81
2022-08-04T13:35:55.944Z,40.54
2022-08-04T13:38:37.721Z,40.36
2022-08-04T13:41:18.380Z,40.34
2022-08-04T13:44:17.520Z,40.12
2022-08-04T13:47:02.711Z,39.97
2022-08-04T13:50:01.204Z,39.84
2022-08-04T13:52:45.458Z,39.41
2022-08-04T13:55:27.760Z,39.16
2022-08-04T13:58:11.461Z,38.94
2022-08-04T14:00:55.962Z,38.63
2022-08-04T14:03:53.447Z,38.62
2022-08-04T14:06:37.598Z,38.37
2022-08-04T14:09:20.980Z,38.13
2022-08-04T14:12:37.693Z,38.02
2022-08-04T14:15:09.677Z,37.75
2022-08-04T14:17:48.869Z,37.56
2022-08-04T14:20:30.752Z,37.30
2022-08-04T14:23:10.292Z,37.12
2022-08-04T14:25:49.940Z,36.86
2022-08-04T14:28:47.282Z,36.73
2022-08-04T14:31:31.173Z,36.56
2022-08-04T14:34:17.943Z,36.29
2022-08-04T14:37:17.098Z,36.27
2022-08-04T14:40:08.621Z,36.22
2022-08-04T14:42:59.719Z,36.00
2022-08-04T14:45:54.160Z,35.97
2022-08-04T14:49:02.748Z,35.81
2022-08-04T14:51:44.684Z,35.73
2022-08-04T14:54:30.228Z,35.64
2022-08-04T14:57:10.753Z,35.53
2022-08-04T15:00:01.712Z,35.45
2022-08-04T15:02:43.753Z,35.42
2022-08-04T15:06:02.651Z,35.25
2022-08-04T15:08:24.039Z,35.14
2022-08-04T15:11:11.831Z,35.19
2022-08-04T15:14:05.097Z,35.05
2022-08-04T15:16:54.547Z,34.99
2022-08-04T15:19:38.423Z,34.96
2022-08-04T15:22:19.259Z,34.60
2022-08-04T15:25:05.246Z,34.15
2022-08-04T15:27:48.571Z,33.78
2022-08-04T15:30:30.581Z,33.49
2022-08-04T15:33:10.551Z,33.15
2022-08-04T15:36:14.252Z,32.86
2022-08-04T15:39:04.964Z,32.70
2022-08-04T15:41:55.733Z,32.50
2022-08-04T15:44:55.521Z,32.22
2022-08-04T15:47:38.142Z,32.12
2022-08-04T15:50:28.621Z,31.90
2022-08-04T15:53:13.008Z,31.76
2022-08-04T15:55:53.868Z,31.59
2022-08-04T15:58:50.327Z,31.45
2022-08-04T16:01:31.136Z,31.32
2022-08-04T16:04:24.685Z,31.24
2022-08-04T16:07:06.822Z,31.16
2022-08-04T16:09:46.756Z,30.98
2022-08-04T16:12:58.204Z,30.83
2022-08-04T16:15:44.664Z,30.68
2022-08-04T16:18:39.809Z,30.53
2022-08-04T16:21:34.511Z,30.48
2022-08-04T16:24:21.911Z,30.42
2022-08-04T16:27:06.317Z,30.18
2022-08-04T16:29:47.897Z,30.08
2022-08-04T16:32:40.491Z,30.07
2022-08-04T16:35:28.629Z,29.85
2022-08-04T16:38:15.404Z,29.81
2022-08-04T16:40:59.085Z,29.76
2022-08-04T16:43:39.752Z,29.65
2022-08-04T16:46:41.070Z,29.55
2022-08-04T16:49:51.920Z,29.53
2022-08-04T16:52:32.038Z,29.42
2022-08-04T16:55:12.482Z,29.44
2022-08-04T16:57:56.558Z,29.40
2022-08-04T17:00:37.735Z,29.27
2022-08-04T17:03:17.565Z,29.24
2022-08-04T17:06:14.353Z,29.25
2022-08-04T17:08:54.786Z,28.99
2022-08-04T17:11:34.633Z,29.02
2022-08-04T17:14:14.557Z,28.98
2022-08-04T17:16:58.057Z,28.93
2022-08-04T17:19:37.697Z,28.85
2022-08-04T17:22:17.080Z,28.87
2022-08-04T17:25:00.259Z,28.85
2022-08-04T17:28:09.475Z,28.88
2022-08-04T17:30:51.267Z,28.85
2022-08-04T17:33:55.173Z,28.83
2022-08-04T17:36:33.631Z,28.77
2022-08-04T17:39:17.187Z,28.54
2022-08-04T17:42:29.398Z,28.49
2022-08-04T17:45:49.378Z,28.48
2022-08-04T17:48:24.602Z,28.43
2022-08-04T17:51:16.540Z,28.42
2022-08-04T17:54:02.585Z,28.28
2022-08-04T17:56:52.120Z,28.25
2022-08-04T18:02:54.910Z,28.14
2022-08-04T18:06:01.824Z,28.08
2022-08-04T18:08:40.838Z,27.99
2022-08-04T18:11:22.012Z,27.93
2022-08-04T18:14:02.817Z,27.87
2022-08-04T18:16:45.796Z,27.83
2022-08-04T18:19:31.358Z,27.78
2022-08-04T18:22:27.541Z,27.66
2022-08-04T18:25:09.116Z,27.58
2022-08-04T18:27:51.470Z,27.53
2022-08-04T18:30:53.077Z,27.47
2022-08-04T18:33:41.285Z,27.39
2022-08-04T18:36:34.922Z,27.32
2022-08-04T18:39:17.495Z,27.26
2022-08-04T18:42:18.162Z,27.20
2022-08-04T18:44:58.040Z,27.13
2022-08-04T18:47:58.767Z,27.10
2022-08-04T18:51:09.072Z,27.05
2022-08-04T18:53:44.835Z,26.99
2022-08-04T18:56:36.141Z,26.94
2022-08-04T18:59:16.184Z,26.86
2022-08-04T19:02:16.746Z,26.82
2022-08-04T19:04:59.192Z,26.76
2022-08-04T19:08:01.991Z,26.66
2022-08-04T19:10:43.877Z,26.67
2022-08-04T19:13:25.605Z,26.63
2022-08-04T19:16:06.545Z,26.58
2022-08-04T19:18:55.994Z,26.54
2022-08-04T19:22:00.147Z,26.47
2022-08-04T19:24:37.604Z,26.44
2022-08-04T19:27:20.647Z,26.39
2022-08-04T19:30:00.431Z,26.33
2022-08-04T19:32:42.276Z,26.31
2022-08-04T19:35:28.145Z,26.27
2022-08-04T19:38:10.603Z,26.25
2022-08-04T19:40:57.861Z,26.21
2022-08-04T19:43:38.836Z,26.11
2022-08-04T19:46:24.958Z,26.00
2022-08-04T19:49:06.299Z,25.87
2022-08-04T19:52:07.593Z,25.74
2022-08-04T19:54:49.396Z,25.63
2022-08-04T19:57:35.390Z,25.56
2022-08-04T20:00:33.110Z,25.44
2022-08-04T20:03:20.424Z,25.28
2022-08-04T20:06:01.152Z,25.24
2022-08-04T20:08:48.043Z,25.10
2022-08-04T20:11:41.513Z,24.99
2022-08-04T20:14:32.713Z,24.91
2022-08-04T20:17:15.263Z,24.82
2022-08-04T20:19:58.628Z,24.71
2022-08-04T20:22:46.314Z,24.65
2022-08-04T20:25:37.334Z,24.59
2022-08-04T20:28:36.267Z,24.58
2022-08-04T20:31:18.189Z,24.55
2022-08-04T20:34:18.421Z,24.48
2022-08-04T20:37:00.242Z,24.39
2022-08-04T20:39:39.901Z,24.29
2022-08-04T20:42:19.491Z,24.20
2022-08-04T20:45:08.547Z,24.11
2022-08-04T20:47:58.678Z,24.03
2022-08-04T20:50:42.534Z,23.94
2022-08-04T20:53:32.763Z,23.88
2022-08-04T20:56:30.592Z,23.76
2022-08-04T20:59:11.071Z,23.75
2022-08-04T21:01:57.868Z,23.73
2022-08-04T21:04:48.526Z,23.66
2022-08-04T21:07:28.265Z,23.62
2022-08-04T21:10:08.883Z,23.56
2022-08-04T21:12:52.358Z,23.52
2022-08-04T21:15:58.821Z,23.45
2022-08-04T21:18:39.916Z,23.35
2022-08-04T21:21:23.991Z,23.38
2022-08-04T21:24:16.544Z,23.34
2022-08-04T21:26:59.251Z,23.31
2022-08-04T21:29:43.565Z,23.23
2022-08-04T21:35:37.496Z,23.27
2022-08-04T21:38:25.152Z,23.14
2022-08-04T21:41:27.156Z,23.11
2022-08-04T21:44:08.152Z,23.08
2022-08-04T21:46:48.121Z,23.07
2022-08-04T21:49:29.163Z,23.03
2022-08-04T21:52:24.289Z,23.02
2022-08-04T21:55:03.698Z,22.98
2022-08-04T21:57:44.206Z,22.98
2022-08-04T22:00:28.730Z,22.92
2022-08-04T22:03:23.442Z,22.94
2022-08-04T22:06:12.859Z,22.91
2022-08-04T22:08:59.510Z,22.86
2022-08-04T22:11:48.848Z,22.85
2022-08-04T22:17:35.496Z,22.77
2022-08-04T22:20:27.869Z,22.78
2022-08-04T22:23:16.882Z,22.72
2022-08-04T22:25:59.253Z,22.69
2022-08-04T22:28:38.928Z,22.68
2022-08-04T22:31:25.882Z,22.63
2022-08-04T22:34:06.708Z,22.56
2022-08-04T22:36:49.515Z,22.50
2022-08-04T22:39:30.460Z,22.50
2022-08-04T22:42:13.362Z,22.42
2022-08-04T22:44:53.821Z,22.35
2022-08-04T22:47:35.866Z,22.28
2022-08-04T22:50:26.719Z,22.24
2022-08-04T22:53:07.583Z,22.14
2022-08-04T22:56:06.992Z,22.08
2022-08-04T22:58:51.352Z,22.04
2022-08-04T23:01:33.111Z,22.02
2022-08-04T23:04:54.229Z,21.98
2022-08-04T23:07:47.246Z,21.98
2022-08-04T23:10:31.347Z,21.97
2022-08-04T23:13:24.224Z,21.94
2022-08-04T23:16:09.855Z,21.85
2022-08-04T23:18:50.488Z,21.84
2022-08-04T23:21:40.890Z,21.81
2022-08-04T23:24:29.964Z,21.78
2022-08-04T23:27:43.692Z,21.73
2022-08-04T23:30:29.873Z,21.69
2022-08-04T23:33:11.332Z,21.65
2022-08-04T23:35:58.005Z,21.62
2022-08-04T23:38:39.222Z,21.60
2022-08-04T23:41:55.430Z,21.50
2022-08-04T23:44:34.438Z,21.44
2022-08-04T23:48:16.399Z,21.38
2022-08-04T23:50:15.895Z,21.31
2022-08-04T23:52:56.988Z,21.26
2022-08-04T23:55:39.643Z,21.21
2022-08-04T23:58:21.024Z,21.15
